sensor_id;sensor_type;location;lat;lon;timestamp;pressure;altitude;pressure_sealevel;temperature;humidity
39699;BME280;25372;50.582;12.250;2024-02-21T00:09:43;100382.38;;;6.03;82.14
39699;BME280;25372;50.582;12.250;2024-02-21T00:20:06;100368.38;;;6.06;81.92
39699;BME280;25372;50.582;12.250;2024-02-21T00:30:27;100354.38;;;6.08;82.29
39699;BME280;25372;50.582;12.250;2024-02-21T00:40:50;100336.84;;;6.12;81.53
39699;BME280;25372;50.582;12.250;2024-02-21T00:51:11;100338.50;;;6.14;81.95
39699;BME280;25372;50.582;12.250;2024-02-21T01:01:33;100321.44;;;6.06;82.86
39699;BME280;25372;50.582;12.250;2024-02-21T01:11:54;100305.25;;;5.96;82.14
39699;BME280;25372;50.582;12.250;2024-02-21T01:22:16;100297.44;;;5.96;81.85
39699;BME280;25372;50.582;12.250;2024-02-21T01:32:37;100282.78;;;5.92;81.81
39699;BME280;25372;50.582;12.250;2024-02-21T01:42:59;100262.63;;;5.97;82.39
39699;BME280;25372;50.582;12.250;2024-02-21T01:53:23;100238.44;;;5.69;82.71
39699;BME280;25372;50.582;12.250;2024-02-21T02:03:47;100240.59;;;5.58;83.56
39699;BME280;25372;50.582;12.250;2024-02-21T02:14:07;100221.16;;;5.67;82.74
39699;BME280;25372;50.582;12.250;2024-02-21T02:24:30;100221.50;;;5.81;82.58
39699;BME280;25372;50.582;12.250;2024-02-21T02:35:03;100217.75;;;5.88;83.10
39699;BME280;25372;50.582;12.250;2024-02-21T02:45:27;100205.88;;;5.81;82.09
39699;BME280;25372;50.582;12.250;2024-02-21T02:55:48;100204.78;;;5.87;83.22
39699;BME280;25372;50.582;12.250;2024-02-21T03:06:12;100186.94;;;5.76;83.06
39699;BME280;25372;50.582;12.250;2024-02-21T03:16:32;100188.50;;;5.80;82.98
39699;BME280;25372;50.582;12.250;2024-02-21T03:26:55;100171.34;;;5.74;82.98
39699;BME280;25372;50.582;12.250;2024-02-21T03:37:16;100174.34;;;5.87;82.76
39699;BME280;25372;50.582;12.250;2024-02-21T03:47:38;100174.34;;;5.87;82.17
39699;BME280;25372;50.582;12.250;2024-02-21T03:57:59;100160.09;;;5.96;81.99
39699;BME280;25372;50.582;12.250;2024-02-21T04:08:22;100153.25;;;5.94;80.71
39699;BME280;25372;50.582;12.250;2024-02-21T04:18:43;100146.97;;;5.99;81.22
39699;BME280;25372;50.582;12.250;2024-02-21T04:29:05;100145.53;;;5.91;80.78
39699;BME280;25372;50.582;12.250;2024-02-21T04:39:26;100139.13;;;5.99;80.89
39699;BME280;25372;50.582;12.250;2024-02-21T04:49:48;100139.38;;;5.71;83.12
39699;BME280;25372;50.582;12.250;2024-02-21T05:00:10;100127.28;;;5.91;80.61
39699;BME280;25372;50.582;12.250;2024-02-21T05:10:33;100112.28;;;5.97;81.63
39699;BME280;25372;50.582;12.250;2024-02-21T05:20:54;100119.22;;;5.74;85.27
39699;BME280;25372;50.582;12.250;2024-02-21T05:31:17;100123.13;;;5.86;83.86
39699;BME280;25372;50.582;12.250;2024-02-21T05:41:44;100111.13;;;5.82;83.25
39699;BME280;25372;50.582;12.250;2024-02-21T05:52:07;100110.75;;;5.92;84.51
39699;BME280;25372;50.582;12.250;2024-02-21T06:02:28;100099.97;;;5.79;86.22
39699;BME280;25372;50.582;12.250;2024-02-21T06:12:50;100070.34;;;5.81;85.85
39699;BME280;25372;50.582;12.250;2024-02-21T06:23:11;100056.25;;;5.85;85.48
39699;BME280;25372;50.582;12.250;2024-02-21T06:33:34;100049.41;;;5.83;85.76
39699;BME280;25372;50.582;12.250;2024-02-21T06:43:55;100051.66;;;5.92;86.10
39699;BME280;25372;50.582;12.250;2024-02-21T06:54:17;100053.44;;;6.12;85.32
39699;BME280;25372;50.582;12.250;2024-02-21T07:04:38;100063.13;;;6.31;84.46
39699;BME280;25372;50.582;12.250;2024-02-21T07:15:02;100069.59;;;6.43;84.16
39699;BME280;25372;50.582;12.250;2024-02-21T07:25:23;100076.75;;;6.58;83.76
39699;BME280;25372;50.582;12.250;2024-02-21T07:35:45;100079.50;;;6.95;83.47
39699;BME280;25372;50.582;12.250;2024-02-21T07:46:06;100065.59;;;7.52;79.63
39699;BME280;25372;50.582;12.250;2024-02-21T07:56:28;100052.56;;;7.14;80.23
39699;BME280;25372;50.582;12.250;2024-02-21T08:06:51;100069.56;;;7.42;78.94
39699;BME280;25372;50.582;12.250;2024-02-21T08:17:14;100068.81;;;7.94;76.26
39699;BME280;25372;50.582;12.250;2024-02-21T08:27:37;100060.09;;;7.76;76.78
39699;BME280;25372;50.582;12.250;2024-02-21T08:37:59;100050.47;;;8.14;75.77
39699;BME280;25372;50.582;12.250;2024-02-21T08:48:20;100048.78;;;7.58;77.83
39699;BME280;25372;50.582;12.250;2024-02-21T08:58:42;100032.53;;;7.88;75.79
39699;BME280;25372;50.582;12.250;2024-02-21T09:09:04;100032.97;;;8.14;73.76
39699;BME280;25372;50.582;12.250;2024-02-21T09:19:26;100028.88;;;7.91;76.48
39699;BME280;25372;50.582;12.250;2024-02-21T09:29:47;100031.38;;;7.94;76.18
39699;BME280;25372;50.582;12.250;2024-02-21T09:40:10;100050.88;;;7.69;75.92
39699;BME280;25372;50.582;12.250;2024-02-21T09:50:34;100056.28;;;7.83;75.87
39699;BME280;25372;50.582;12.250;2024-02-21T10:00:57;100049.75;;;8.10;76.37
39699;BME280;25372;50.582;12.250;2024-02-21T10:11:22;100039.59;;;8.21;74.02
39699;BME280;25372;50.582;12.250;2024-02-21T10:21:58;100034.09;;;8.44;74.55
39699;BME280;25372;50.582;12.250;2024-02-21T10:32:19;100035.56;;;8.67;73.20
39699;BME280;25372;50.582;12.250;2024-02-21T10:42:44;100023.75;;;8.42;72.53
39699;BME280;25372;50.582;12.250;2024-02-21T10:53:12;100015.09;;;8.58;73.48
39699;BME280;25372;50.582;12.250;2024-02-21T11:03:39;100007.50;;;8.53;73.76
39699;BME280;25372;50.582;12.250;2024-02-21T11:14:05;99994.31;;;8.37;74.50
39699;BME280;25372;50.582;12.250;2024-02-21T11:24:29;99986.28;;;8.91;73.90
39699;BME280;25372;50.582;12.250;2024-02-21T11:34:54;99952.97;;;8.77;73.59
39699;BME280;25372;50.582;12.250;2024-02-21T11:45:17;99938.78;;;9.14;71.41
39699;BME280;25372;50.582;12.250;2024-02-21T11:55:40;99915.69;;;9.20;72.60
39699;BME280;25372;50.582;12.250;2024-02-21T12:06:03;99896.91;;;9.28;70.87
39699;BME280;25372;50.582;12.250;2024-02-21T12:16:24;99873.53;;;9.40;72.69
39699;BME280;25372;50.582;12.250;2024-02-21T12:26:47;99842.44;;;9.78;69.82
39699;BME280;25372;50.582;12.250;2024-02-21T12:37:08;99814.41;;;10.52;66.77
39699;BME280;25372;50.582;12.250;2024-02-21T12:47:31;99807.75;;;10.46;66.21
39699;BME280;25372;50.582;12.250;2024-02-21T12:57:52;99772.69;;;9.76;69.74
39699;BME280;25372;50.582;12.250;2024-02-21T13:08:14;99754.84;;;10.10;68.90
39699;BME280;25372;50.582;12.250;2024-02-21T13:18:35;99736.19;;;10.15;67.98
39699;BME280;25372;50.582;12.250;2024-02-21T13:28:58;99722.25;;;10.42;66.68
39699;BME280;25372;50.582;12.250;2024-02-21T13:39:19;99710.84;;;10.28;66.11
39699;BME280;25372;50.582;12.250;2024-02-21T13:49:42;99683.72;;;10.28;67.86
39699;BME280;25372;50.582;12.250;2024-02-21T14:00:05;99655.66;;;10.15;65.94
39699;BME280;25372;50.582;12.250;2024-02-21T14:10:34;99636.06;;;10.48;65.31
39699;BME280;25372;50.582;12.250;2024-02-21T14:20:56;99629.84;;;10.49;63.55
39699;BME280;25372;50.582;12.250;2024-02-21T14:31:18;99615.91;;;10.75;59.19
39699;BME280;25372;50.582;12.250;2024-02-21T14:41:39;99606.97;;;11.03;57.26
39699;BME280;25372;50.582;12.250;2024-02-21T14:52:02;99599.44;;;10.86;56.23
39699;BME280;25372;50.582;12.250;2024-02-21T15:02:23;99592.19;;;10.76;57.48
39699;BME280;25372;50.582;12.250;2024-02-21T15:12:46;99581.16;;;10.58;58.97
39699;BME280;25372;50.582;12.250;2024-02-21T15:23:07;99574.22;;;10.44;57.55
39699;BME280;25372;50.582;12.250;2024-02-21T15:33:29;99563.69;;;9.63;63.57
39699;BME280;25372;50.582;12.250;2024-02-21T15:43:50;99542.72;;;8.78;66.94
39699;BME280;25372;50.582;12.250;2024-02-21T15:54:14;99504.50;;;7.85;71.61
39699;BME280;25372;50.582;12.250;2024-02-21T16:15:12;99474.25;;;6.70;76.95
39699;BME280;25372;50.582;12.250;2024-02-21T16:25:33;99455.72;;;6.75;77.95
39699;BME280;25372;50.582;12.250;2024-02-21T16:35:56;99435.88;;;5.87;82.92
39699;BME280;25372;50.582;12.250;2024-02-21T16:46:17;99429.81;;;5.14;87.41
39699;BME280;25372;50.582;12.250;2024-02-21T16:56:40;99426.34;;;4.77;89.53
39699;BME280;25372;50.582;12.250;2024-02-21T17:07:01;99417.59;;;4.40;87.37
39699;BME280;25372;50.582;12.250;2024-02-21T17:17:23;99401.47;;;4.12;86.69
39699;BME280;25372;50.582;12.250;2024-02-21T17:27:44;99390.88;;;4.17;88.22
39699;BME280;25372;50.582;12.250;2024-02-21T17:38:07;99391.44;;;3.63;92.64
39699;BME280;25372;50.582;12.250;2024-02-21T17:48:29;99385.56;;;3.37;93.13
39699;BME280;25372;50.582;12.250;2024-02-21T17:58:51;99369.44;;;3.08;95.11
39699;BME280;25372;50.582;12.250;2024-02-21T18:09:12;99346.25;;;3.26;92.67
39699;BME280;25372;50.582;12.250;2024-02-21T18:19:34;99335.34;;;3.80;89.49
39699;BME280;25372;50.582;12.250;2024-02-21T18:29:55;99312.13;;;4.15;88.02
39699;BME280;25372;50.582;12.250;2024-02-21T18:40:18;99300.75;;;3.98;91.05
39699;BME280;25372;50.582;12.250;2024-02-21T18:50:39;99281.41;;;3.85;92.03
39699;BME280;25372;50.582;12.250;2024-02-21T19:01:01;99271.72;;;4.08;89.57
39699;BME280;25372;50.582;12.250;2024-02-21T19:11:23;99250.38;;;4.20;87.15
39699;BME280;25372;50.582;12.250;2024-02-21T19:21:46;99229.81;;;3.96;91.37
39699;BME280;25372;50.582;12.250;2024-02-21T19:32:08;99207.22;;;3.98;90.00
39699;BME280;25372;50.582;12.250;2024-02-21T19:42:30;99184.66;;;3.99;89.71
39699;BME280;25372;50.582;12.250;2024-02-21T19:52:51;99155.66;;;4.26;90.43
39699;BME280;25372;50.582;12.250;2024-02-21T20:03:14;99141.22;;;4.38;90.85
39699;BME280;25372;50.582;12.250;2024-02-21T20:13:35;99134.59;;;4.50;88.29
39699;BME280;25372;50.582;12.250;2024-02-21T20:23:58;99126.63;;;4.53;89.46
39699;BME280;25372;50.582;12.250;2024-02-21T20:34:19;99120.13;;;4.61;87.73
39699;BME280;25372;50.582;12.250;2024-02-21T20:44:41;99112.88;;;4.51;91.59
39699;BME280;25372;50.582;12.250;2024-02-21T20:55:02;99097.88;;;4.56;87.83
39699;BME280;25372;50.582;12.250;2024-02-21T21:05:26;99086.41;;;4.60;87.38
39699;BME280;25372;50.582;12.250;2024-02-21T21:15:47;99072.69;;;4.74;84.02
39699;BME280;25372;50.582;12.250;2024-02-21T21:26:10;99047.75;;;4.70;84.61
39699;BME280;25372;50.582;12.250;2024-02-21T21:36:31;99043.53;;;4.67;86.32
39699;BME280;25372;50.582;12.250;2024-02-21T21:46:53;99042.31;;;4.74;85.63
39699;BME280;25372;50.582;12.250;2024-02-21T21:57:14;99030.34;;;4.54;86.36
39699;BME280;25372;50.582;12.250;2024-02-21T22:07:37;99002.59;;;4.71;83.44
39699;BME280;25372;50.582;12.250;2024-02-21T22:17:57;99002.88;;;4.82;84.06
39699;BME280;25372;50.582;12.250;2024-02-21T22:28:20;98988.44;;;4.76;83.44
39699;BME280;25372;50.582;12.250;2024-02-21T22:38:42;98977.56;;;5.18;78.66
39699;BME280;25372;50.582;12.250;2024-02-21T22:49:04;98954.97;;;5.96;71.97
39699;BME280;25372;50.582;12.250;2024-02-21T22:59:25;98955.91;;;7.25;59.53
39699;BME280;25372;50.582;12.250;2024-02-21T23:09:47;98933.06;;;7.82;56.75
39699;BME280;25372;50.582;12.250;2024-02-21T23:20:09;98921.47;;;8.25;55.70
39699;BME280;25372;50.582;12.250;2024-02-21T23:30:32;98904.94;;;8.25;55.32
39699;BME280;25372;50.582;12.250;2024-02-21T23:40:53;98882.09;;;8.40;55.20
39699;BME280;25372;50.582;12.250;2024-02-21T23:51:15;98880.88;;;8.33;59.00
